Погода Трайрина 2 недели

Сеара, Бразилия

14 - 26 июля
  • 14июля
    Сегодня
    +24°
    +31°
    Облачно с прояснениями
    ВремяПогодаТемператураВлажностьДавлениеВетер, м/сВероятность осадков
    00:00Ясно и безоблачно+27°C78 %760 мм4.0 м/с4 %
    03:00Практически безоблачно+25°C75 %759 мм4.5 м/с13 %
    06:00Практически безоблачно+24°C68 %760 мм5.2 м/с4 %
    09:00Небольшая облачность+28°C56 %761 мм6.6 м/с5 %
    12:00Пасмурно, сплошная облачность+30°C50 %760 мм7.6 м/с5 %
    15:00Облачно с прояснениями+29°C62 %759 мм6.7 м/с3 %
    18:00Практически безоблачно+28°C76 %760 мм6.2 м/с3 %
    21:00Практически безоблачно+27°C79 %761 мм5.5 м/с4 %
  • 15июля
    Понедельник
    +24°
    +31°
    Практически безоблачно
    ВремяПогодаТемператураВлажностьДавлениеВетер, м/сВероятность осадков
    00:00Практически безоблачно+27°C79 %761 мм6.1 м/с19 %
    03:00Ясно и безоблачно+26°C78 %760 мм5.9 м/с21 %
    06:00Облачно с прояснениями+25°C78 %761 мм5.4 м/с15 %
    09:00Ясно и безоблачно+27°C64 %762 мм6.2 м/с10 %
    12:00Практически безоблачно+31°C50 %761 мм7.3 м/с4 %
    15:00Практически безоблачно+29°C62 %760 мм6.7 м/с3 %
    18:00Ясно и безоблачно+28°C77 %760 мм5.3 м/с4 %
    21:00Ясно и безоблачно+27°C82 %762 мм5.6 м/с14 %
  • 16июля
    Вторник
    +24°
    +32°
    Ясно и безоблачно
    ВремяПогодаТемператураВлажностьДавлениеВетер, м/сВероятность осадков
    00:00Практически безоблачно+28°C79 %761 мм5.7 м/с31 %
    03:00Ясно и безоблачно+26°C82 %760 мм5.3 м/с44 %
    06:00Ясно и безоблачно+25°C77 %761 мм4.8 м/с13 %
    09:00Ясно и безоблачно+28°C58 %762 мм6.0 м/с2 %
    12:00Ясно и безоблачно+30°C48 %761 мм6.2 м/с5 %
    15:00Ясно и безоблачно+30°C60 %759 мм5.7 м/с3 %
    18:00Ясно и безоблачно+27°C79 %760 мм5.5 м/с5 %
    21:00Ясно и безоблачно+27°C80 %762 мм5.2 м/с5 %
  • 17июля
    Среда
    +24°
    +31°
    Ясно и безоблачно
    ВремяПогодаТемператураВлажностьДавлениеВетер, м/сВероятность осадков
    00:00Ясно и безоблачно+27°C82 %762 мм4.8 м/с10 %
    03:00Ясно и безоблачно+26°C79 %761 мм5.1 м/с11 %
    06:00Ясно и безоблачно+24°C72 %762 мм4.5 м/с6 %
    09:00Ясно и безоблачно+28°C55 %763 мм6.1 м/с5 %
    12:00Практически безоблачно+30°C49 %761 мм6.5 м/с5 %
    15:00Ясно и безоблачно+29°C59 %759 мм7.5 м/с3 %
    18:00Ясно и безоблачно+27°C76 %760 мм5.3 м/с5 %
    21:00Ясно и безоблачно+27°C83 %761 мм5.4 м/с13 %
  • 18июля
    Четверг
    +24°
    +31°
    Ясно и безоблачно
    ВремяПогодаТемператураВлажностьДавлениеВетер, м/сВероятность осадков
    00:00Ясно и безоблачно+27°C82 %761 мм5.7 м/с41 %
    03:00Небольшая облачность и лёгкий дождик+26°C83 %760 мм5.9 м/с57 %
    06:00Ясно и безоблачно+25°C83 %761 мм5.2 м/с39 %
    09:00Ясно и безоблачно+28°C61 %762 мм5.9 м/с24 %
    12:00Облачно с прояснениями+30°C54 %761 мм6.4 м/с11 %
    15:00Ясно и безоблачно+29°C64 %760 мм6.5 м/с14 %
    18:00Ясно и безоблачно+28°C76 %760 мм5.5 м/с20 %
    21:00Ясно и безоблачно+27°C82 %762 мм4.9 м/с35 %
Мы используем cookies
Соглашаюсь